createdAt,value
2022-07-28T00:00:43.965Z,32.75
2022-07-28T00:03:10.473Z,32.84
2022-07-28T00:05:36.994Z,33.01
2022-07-28T00:08:03.857Z,32.69
2022-07-28T00:10:32.151Z,32.71
2022-07-28T00:12:59.899Z,32.51
2022-07-28T00:15:27.439Z,32.54
2022-07-28T00:17:53.977Z,32.48
2022-07-28T00:20:20.999Z,32.48
2022-07-28T00:22:47.534Z,32.96
2022-07-28T00:25:15.174Z,32.97
2022-07-28T00:27:41.715Z,33.01
2022-07-28T00:30:10.012Z,32.74
2022-07-28T00:32:37.598Z,32.89
2022-07-28T00:35:04.893Z,32.14
2022-07-28T00:37:34.682Z,32.74
2022-07-28T00:40:01.325Z,32.53
2022-07-28T00:42:27.771Z,32.94
2022-07-28T00:44:54.239Z,32.55
2022-07-28T00:47:20.752Z,32.61
2022-07-28T00:49:48.292Z,32.58
2022-07-28T00:52:18.171Z,32.61
2022-07-28T00:54:44.736Z,32.84
2022-07-28T00:57:11.187Z,33.16
2022-07-28T00:59:37.707Z,33.08
2022-07-28T01:02:05.254Z,32.83
2022-07-28T01:04:32.163Z,33.09
2022-07-28T01:07:10.663Z,33.13
2022-07-28T01:10:06.307Z,32.78
2022-07-28T01:12:32.708Z,33.18
2022-07-28T01:15:34.621Z,32.69
2022-07-28T01:18:06.708Z,32.83
2022-07-28T01:20:41.738Z,32.82
2022-07-28T01:23:32.798Z,33.19
2022-07-28T01:26:34.580Z,33.03
2022-07-28T01:29:21.762Z,32.89
2022-07-28T01:32:01.289Z,32.93
2022-07-28T01:34:33.487Z,33.25
2022-07-28T01:37:10.143Z,33.20
2022-07-28T01:39:39.644Z,32.77
2022-07-28T01:42:08.919Z,32.86
2022-07-28T01:44:41.180Z,33.29
2022-07-28T01:47:09.235Z,33.13
2022-07-28T01:49:36.988Z,32.90
2022-07-28T01:52:08.171Z,33.00
2022-07-28T01:54:38.785Z,33.23
2022-07-28T01:57:10.873Z,33.15
2022-07-28T01:59:39.879Z,32.97
2022-07-28T02:02:08.887Z,33.13
2022-07-28T02:04:39.497Z,32.69
2022-07-28T02:07:08.373Z,32.76
2022-07-28T02:09:35.519Z,33.37
2022-07-28T02:12:04.470Z,32.98
2022-07-28T02:14:32.906Z,32.91
2022-07-28T02:17:07.863Z,33.06
2022-07-28T02:19:35.951Z,33.03
2022-07-28T02:22:04.886Z,32.98
2022-07-28T02:24:32.768Z,33.25
2022-07-28T02:27:03.979Z,33.44
2022-07-28T02:29:50.779Z,33.20
2022-07-28T02:32:25.247Z,33.06
2022-07-28T02:35:00.722Z,33.09
2022-07-28T02:37:34.816Z,33.23
2022-07-28T02:40:03.476Z,33.18
2022-07-28T02:42:33.313Z,33.33
2022-07-28T02:45:02.913Z,33.01
2022-07-28T02:47:35.002Z,32.94
2022-07-28T02:50:04.084Z,33.32
2022-07-28T02:52:32.858Z,33.48
2022-07-28T02:55:02.250Z,33.41
2022-07-28T02:57:30.600Z,32.98
2022-07-28T02:59:57.516Z,33.28
2022-07-28T03:02:24.586Z,33.50
2022-07-28T03:04:59.343Z,33.10
2022-07-28T03:07:30.549Z,33.33
2022-07-28T03:09:58.287Z,33.26
2022-07-28T03:12:26.335Z,33.00
2022-07-28T03:14:52.859Z,33.39
2022-07-28T03:17:19.521Z,32.97
2022-07-28T03:19:46.075Z,33.36
2022-07-28T03:22:12.770Z,32.89
2022-07-28T03:24:44.384Z,33.48
2022-07-28T03:27:34.441Z,33.50
2022-07-28T03:30:04.323Z,33.45
2022-07-28T03:32:34.322Z,33.50
2022-07-28T03:35:01.263Z,33.11
2022-07-28T03:37:59.858Z,33.00
2022-07-28T03:40:29.759Z,33.46
2022-07-28T03:42:57.835Z,33.02
2022-07-28T03:45:24.872Z,33.27
2022-07-28T03:47:55.688Z,33.04
2022-07-28T03:50:24.425Z,33.06
2022-07-28T03:52:51.436Z,33.17
2022-07-28T03:55:18.636Z,33.09
2022-07-28T03:57:45.864Z,33.02
2022-07-28T04:00:14.271Z,32.99
2022-07-28T04:02:46.554Z,32.97
2022-07-28T04:05:15.180Z,33.20
2022-07-28T04:07:41.938Z,33.18
2022-07-28T04:10:11.301Z,33.41
2022-07-28T04:12:57.213Z,33.51
2022-07-28T04:15:25.131Z,33.32
2022-07-28T04:17:52.846Z,32.97
2022-07-28T04:20:21.055Z,33.17
2022-07-28T04:22:48.422Z,33.58
2022-07-28T04:25:16.578Z,33.43
2022-07-28T04:27:43.493Z,33.42
2022-07-28T04:30:13.297Z,33.33
2022-07-28T04:32:40.945Z,33.49
2022-07-28T04:35:08.865Z,33.03
2022-07-28T04:37:35.686Z,33.49
2022-07-28T04:40:02.807Z,33.18
2022-07-28T04:42:29.293Z,33.44
2022-07-28T04:44:56.143Z,33.12
2022-07-28T04:47:24.395Z,33.37
2022-07-28T04:49:52.673Z,33.27
2022-07-28T04:52:19.967Z,33.43
2022-07-28T04:54:46.428Z,33.21
2022-07-28T04:57:12.978Z,33.64
2022-07-28T04:59:41.168Z,33.30
2022-07-28T05:02:08.121Z,33.31
2022-07-28T05:04:34.885Z,33.57
2022-07-28T05:07:01.763Z,33.54
2022-07-28T05:09:34.560Z,33.60
2022-07-28T05:12:01.029Z,33.24
2022-07-28T05:14:27.482Z,33.72
2022-07-28T05:16:53.986Z,33.68
2022-07-28T05:19:20.495Z,33.60
2022-07-28T05:21:46.959Z,33.84
2022-07-28T05:24:14.308Z,33.43
2022-07-28T05:26:41.120Z,33.75
2022-07-28T05:29:07.802Z,33.38
2022-07-28T05:31:34.359Z,33.85
2022-07-28T05:34:00.875Z,33.34
2022-07-28T05:36:27.650Z,33.34
2022-07-28T05:38:54.459Z,33.95
2022-07-28T05:41:20.906Z,33.75
2022-07-28T05:43:47.347Z,33.49
2022-07-28T05:46:13.920Z,33.41
2022-07-28T05:48:40.530Z,33.54
2022-07-28T05:51:07.078Z,33.84
2022-07-28T05:53:33.564Z,33.97
2022-07-28T05:56:01.748Z,33.90
2022-07-28T05:58:29.756Z,33.97
2022-07-28T06:00:59.964Z,34.11
2022-07-28T06:03:26.519Z,33.96
2022-07-28T06:06:14.153Z,33.87
2022-07-28T06:08:42.322Z,34.01
2022-07-28T06:11:17.862Z,33.81
2022-07-28T06:13:49.667Z,33.63
2022-07-28T06:16:16.232Z,33.74
2022-07-28T06:18:43.982Z,34.15
2022-07-28T06:21:10.917Z,34.05
2022-07-28T06:23:37.420Z,33.84
2022-07-28T06:26:03.891Z,34.06
2022-07-28T06:28:30.401Z,34.08
2022-07-28T06:30:57.036Z,34.07
2022-07-28T06:33:23.665Z,34.19
2022-07-28T06:35:51.417Z,33.88
2022-07-28T06:38:20.373Z,33.36
2022-07-28T06:40:49.832Z,32.94
2022-07-28T06:43:16.361Z,33.38
2022-07-28T06:45:44.945Z,33.52
2022-07-28T06:48:13.629Z,33.32
2022-07-28T06:50:41.011Z,33.44
2022-07-28T06:53:07.599Z,33.49
2022-07-28T06:55:35.782Z,33.50
2022-07-28T06:58:03.686Z,33.78
2022-07-28T07:00:30.644Z,33.73
2022-07-28T07:02:57.396Z,33.36
2022-07-28T07:05:24.027Z,33.52
2022-07-28T07:07:50.498Z,33.12
2022-07-28T07:10:17.175Z,33.19
2022-07-28T07:12:43.689Z,33.60
2022-07-28T07:15:10.910Z,33.51
2022-07-28T07:17:37.679Z,33.40
2022-07-28T07:20:06.718Z,33.29
2022-07-28T07:22:33.249Z,33.52
2022-07-28T07:25:09.085Z,33.95
2022-07-28T07:27:35.579Z,34.14
2022-07-28T07:30:02.544Z,34.53
2022-07-28T07:32:29.052Z,34.47
2022-07-28T07:34:55.501Z,34.35
2022-07-28T07:37:22.207Z,34.67
2022-07-28T07:39:48.631Z,34.76
2022-07-28T07:42:15.094Z,33.65
2022-07-28T07:44:41.604Z,33.57
2022-07-28T07:47:16.603Z,33.79
2022-07-28T07:49:45.950Z,34.61
2022-07-28T07:52:13.658Z,34.40
2022-07-28T07:54:40.167Z,34.05
2022-07-28T07:57:06.664Z,34.09
2022-07-28T07:59:33.115Z,33.52
2022-07-28T08:02:00.695Z,33.24
2022-07-28T08:04:28.597Z,32.99
2022-07-28T08:06:55.388Z,33.11
2022-07-28T08:09:24.803Z,32.48
2022-07-28T08:11:51.262Z,33.04
2022-07-28T08:14:18.296Z,33.01
2022-07-28T08:16:45.136Z,32.95
2022-07-28T08:19:11.640Z,33.01
2022-07-28T08:21:38.758Z,32.96
2022-07-28T08:24:05.585Z,32.64
2022-07-28T08:26:32.205Z,33.07
2022-07-28T08:28:58.760Z,32.65
2022-07-28T08:31:27.377Z,32.92
2022-07-28T08:33:55.007Z,32.67
2022-07-28T08:36:22.203Z,32.54
2022-07-28T08:38:48.760Z,32.78
2022-07-28T08:41:51.219Z,32.64
2022-07-28T08:44:21.867Z,32.97
2022-07-28T08:46:49.296Z,33.05
2022-07-28T08:49:16.648Z,33.22
2022-07-28T08:51:47.141Z,32.75
2022-07-28T08:54:17.526Z,33.02
2022-07-28T08:56:48.101Z,32.71
2022-07-28T08:59:15.171Z,32.76
2022-07-28T09:01:42.277Z,32.93
2022-07-28T09:04:09.559Z,32.39
2022-07-28T09:06:41.950Z,32.90
2022-07-28T09:09:09.888Z,32.13
2022-07-28T09:11:37.870Z,31.59
2022-07-28T09:14:05.392Z,32.04
2022-07-28T09:16:32.403Z,31.52
2022-07-28T09:18:58.986Z,32.48
2022-07-28T09:21:25.615Z,32.43
2022-07-28T09:23:52.178Z,32.42
2022-07-28T09:26:19.005Z,32.38
2022-07-28T09:28:49.420Z,32.39
2022-07-28T09:31:17.330Z,32.35
2022-07-28T09:34:04.828Z,32.15
2022-07-28T09:36:39.271Z,31.84
2022-07-28T09:39:05.894Z,31.84
2022-07-28T09:41:57.895Z,31.41
2022-07-28T09:44:28.816Z,31.87
2022-07-28T09:46:56.424Z,31.90
2022-07-28T09:49:41.029Z,31.71
2022-07-28T09:52:09.624Z,31.38
2022-07-28T09:54:40.546Z,31.40
2022-07-28T09:57:11.265Z,31.32
2022-07-28T09:59:42.688Z,31.34
2022-07-28T10:02:12.793Z,30.98
2022-07-28T10:04:41.412Z,31.30
2022-07-28T10:07:17.203Z,31.38
2022-07-28T10:09:55.018Z,30.96
2022-07-28T10:12:27.237Z,30.83
2022-07-28T10:14:55.589Z,31.24
2022-07-28T10:17:28.779Z,31.04
2022-07-28T10:20:03.615Z,30.63
2022-07-28T10:22:33.661Z,30.70
2022-07-28T10:25:09.734Z,30.50
2022-07-28T10:27:39.300Z,30.61
2022-07-28T10:30:06.554Z,31.11
2022-07-28T10:32:38.343Z,31.13
2022-07-28T10:35:08.741Z,31.12
2022-07-28T10:37:43.335Z,31.23
2022-07-28T10:40:11.715Z,31.06
2022-07-28T10:42:41.473Z,31.33
2022-07-28T10:45:10.981Z,31.05
2022-07-28T10:47:37.452Z,31.35
2022-07-28T10:50:04.937Z,31.26
2022-07-28T10:52:50.639Z,31.68
2022-07-28T10:55:20.371Z,31.69
2022-07-28T10:58:12.004Z,31.36
2022-07-28T11:01:04.681Z,31.13
2022-07-28T11:03:43.994Z,30.88
2022-07-28T11:06:37.042Z,30.73
2022-07-28T11:09:15.321Z,30.67
2022-07-28T11:11:44.897Z,30.88
2022-07-28T11:14:26.363Z,31.22
2022-07-28T11:17:14.782Z,31.81
2022-07-28T11:20:07.188Z,31.85
2022-07-28T11:22:32.769Z,31.64
2022-07-28T11:25:19.610Z,31.89
2022-07-28T11:27:51.153Z,31.62
2022-07-28T11:30:33.288Z,31.28
2022-07-28T11:33:00.970Z,31.36
2022-07-28T11:35:31.756Z,31.63
2022-07-28T11:38:01.028Z,31.08
2022-07-28T11:40:39.215Z,30.98
2022-07-28T11:43:22.207Z,31.22
2022-07-28T11:46:12.512Z,31.80
2022-07-28T11:48:41.601Z,31.67
2022-07-28T11:51:10.217Z,31.42
2022-07-28T11:53:46.579Z,31.49
2022-07-28T11:56:15.182Z,31.36
2022-07-28T11:58:43.122Z,31.49
2022-07-28T12:01:19.364Z,31.10
2022-07-28T12:03:50.311Z,31.19
2022-07-28T12:06:28.842Z,31.10
2022-07-28T12:09:00.279Z,31.44
2022-07-28T12:11:38.154Z,31.25
2022-07-28T12:14:13.404Z,31.05
2022-07-28T12:16:43.400Z,31.57
2022-07-28T12:19:11.495Z,31.18
2022-07-28T12:21:50.299Z,31.10
2022-07-28T12:24:27.863Z,31.13
2022-07-28T12:26:54.983Z,31.86
2022-07-28T12:29:21.787Z,32.22
2022-07-28T12:31:59.100Z,32.54
2022-07-28T12:34:28.754Z,32.31
2022-07-28T12:36:57.978Z,32.43
2022-07-28T12:39:26.003Z,32.80
2022-07-28T12:42:10.207Z,32.80
2022-07-28T12:44:40.237Z,33.27
2022-07-28T12:47:09.345Z,32.80
2022-07-28T12:49:37.481Z,33.23
2022-07-28T12:52:24.520Z,32.82
2022-07-28T12:54:55.596Z,32.41
2022-07-28T12:57:48.803Z,32.29
2022-07-28T13:00:19.480Z,32.79
2022-07-28T13:02:46.507Z,32.93
2022-07-28T13:06:02.778Z,32.38
2022-07-28T13:08:47.586Z,32.30
2022-07-28T13:11:43.301Z,32.35
2022-07-28T13:14:02.529Z,32.50
2022-07-28T13:16:29.985Z,32.07
2022-07-28T13:19:03.851Z,32.29
2022-07-28T13:21:56.953Z,32.33
2022-07-28T13:24:25.666Z,31.88
2022-07-28T13:26:52.193Z,32.35
2022-07-28T13:29:19.682Z,31.87
2022-07-28T13:31:46.277Z,31.81
2022-07-28T13:34:13.148Z,32.10
2022-07-28T13:36:39.895Z,31.95
2022-07-28T13:39:07.147Z,32.00
2022-07-28T13:41:57.465Z,31.63
2022-07-28T13:44:20.187Z,32.00
2022-07-28T13:46:47.416Z,32.01
2022-07-28T13:49:16.737Z,31.97
2022-07-28T13:51:43.381Z,32.11
2022-07-28T13:54:09.852Z,31.88
2022-07-28T13:56:40.710Z,31.83
2022-07-28T13:59:08.880Z,31.40
2022-07-28T14:01:36.219Z,32.13
2022-07-28T14:04:04.401Z,32.30
2022-07-28T14:06:34.109Z,32.20
2022-07-28T14:09:01.139Z,32.57
2022-07-28T14:11:30.908Z,32.36
2022-07-28T14:14:02.767Z,32.08
2022-07-28T14:16:31.875Z,32.55
2022-07-28T14:18:58.682Z,32.39
2022-07-28T14:21:25.137Z,32.26
2022-07-28T14:23:51.727Z,32.29
2022-07-28T14:26:35.407Z,31.81
2022-07-28T14:29:03.577Z,31.98
2022-07-28T14:31:38.037Z,31.87
2022-07-28T14:34:04.548Z,31.63
2022-07-28T14:36:31.575Z,31.73
2022-07-28T14:38:58.163Z,31.81
2022-07-28T14:41:25.770Z,31.66
2022-07-28T14:43:52.962Z,31.66
2022-07-28T14:46:21.693Z,31.63
2022-07-28T14:48:48.460Z,31.98
2022-07-28T14:51:15.009Z,31.62
2022-07-28T14:53:46.416Z,31.89
2022-07-28T14:56:18.448Z,31.89
2022-07-28T14:58:44.978Z,31.97
2022-07-28T15:01:11.451Z,31.73
2022-07-28T15:03:37.933Z,31.81
2022-07-28T15:06:09.918Z,31.81
2022-07-28T15:08:36.414Z,32.42
2022-07-28T15:11:03.182Z,32.39
2022-07-28T15:13:29.699Z,32.15
2022-07-28T15:15:56.895Z,31.94
2022-07-28T15:18:24.403Z,31.76
2022-07-28T15:20:51.124Z,31.97
2022-07-28T15:23:18.331Z,32.28
2022-07-28T15:25:46.859Z,32.39
2022-07-28T15:28:17.556Z,32.83
2022-07-28T15:30:51.391Z,32.88
2022-07-28T15:33:20.436Z,33.14
2022-07-28T15:35:59.419Z,32.80
2022-07-28T15:38:29.506Z,33.21
2022-07-28T15:40:58.849Z,32.73
2022-07-28T15:43:25.522Z,32.79
2022-07-28T15:45:54.854Z,32.31
2022-07-28T15:48:22.428Z,32.44
2022-07-28T15:50:49.218Z,32.34
2022-07-28T15:53:18.768Z,32.04
2022-07-28T15:55:50.547Z,31.80
2022-07-28T15:58:17.866Z,31.49
2022-07-28T16:00:45.877Z,31.28
2022-07-28T16:03:12.631Z,31.90
2022-07-28T16:05:43.980Z,31.86
2022-07-28T16:08:10.402Z,31.56
2022-07-28T16:10:36.861Z,31.62
2022-07-28T16:13:03.351Z,32.27
2022-07-28T16:15:29.820Z,32.70
2022-07-28T16:17:56.480Z,32.37
2022-07-28T16:20:24.269Z,31.50
2022-07-28T16:22:51.250Z,31.54
2022-07-28T16:25:20.246Z,32.03
2022-07-28T16:27:48.234Z,31.98
2022-07-28T16:30:15.668Z,32.19
2022-07-28T16:32:43.023Z,32.43
2022-07-28T16:35:09.755Z,32.09
2022-07-28T16:37:36.887Z,32.40
2022-07-28T16:40:04.171Z,32.56
2022-07-28T16:42:30.667Z,32.27
2022-07-28T16:44:57.582Z,32.18
2022-07-28T16:47:24.166Z,32.30
2022-07-28T16:49:50.608Z,32.15
2022-07-28T16:52:17.063Z,32.55
2022-07-28T16:54:43.566Z,32.25
2022-07-28T16:57:10.075Z,32.22
2022-07-28T16:59:44.845Z,32.23
2022-07-28T17:02:15.589Z,32.38
2022-07-28T17:04:42.186Z,32.75
2022-07-28T17:07:08.915Z,32.27
2022-07-28T17:09:35.391Z,32.80
2022-07-28T17:12:01.937Z,32.91
2022-07-28T17:14:28.619Z,32.86
2022-07-28T17:16:55.126Z,32.78
2022-07-28T17:19:22.203Z,32.97
2022-07-28T17:21:48.963Z,32.71
2022-07-28T17:24:16.123Z,32.78
2022-07-28T17:27:35.274Z,33.03
2022-07-28T17:29:30.030Z,32.83
2022-07-28T17:31:56.472Z,32.92
2022-07-28T17:34:23.931Z,32.92
2022-07-28T17:36:50.477Z,32.77
2022-07-28T17:39:16.994Z,32.80
2022-07-28T17:41:43.484Z,33.01
2022-07-28T17:44:10.075Z,32.97
2022-07-28T17:46:36.626Z,33.06
2022-07-28T17:49:05.569Z,32.89
2022-07-28T17:51:32.188Z,33.41
2022-07-28T17:53:58.789Z,33.17
2022-07-28T17:56:26.188Z,33.08
2022-07-28T17:58:55.236Z,32.97
2022-07-28T18:01:21.901Z,33.26
2022-07-28T18:03:59.226Z,32.97
2022-07-28T18:06:33.907Z,33.32
2022-07-28T18:09:06.646Z,33.11
2022-07-28T18:11:55.967Z,33.33
2022-07-28T18:14:26.200Z,33.45
2022-07-28T18:16:52.729Z,33.58
2022-07-28T18:19:20.318Z,33.48
2022-07-28T18:21:46.830Z,33.66
2022-07-28T18:24:13.668Z,33.95
2022-07-28T18:26:40.617Z,33.53
2022-07-28T18:29:07.294Z,33.97
2022-07-28T18:31:33.798Z,34.05
2022-07-28T18:34:00.312Z,33.56
2022-07-28T18:36:26.768Z,33.66
2022-07-28T18:38:53.231Z,33.88
2022-07-28T18:41:19.674Z,33.92
2022-07-28T18:43:46.148Z,33.67
2022-07-28T18:46:12.657Z,33.86
2022-07-28T18:48:39.306Z,33.94
2022-07-28T18:51:05.843Z,34.08
2022-07-28T18:53:32.480Z,34.66
2022-07-28T18:55:58.915Z,34.58
2022-07-28T18:58:25.449Z,34.88
2022-07-28T19:00:51.948Z,34.43
2022-07-28T19:03:18.535Z,34.83
2022-07-28T19:05:46.418Z,34.57
2022-07-28T19:08:13.263Z,34.91
2022-07-28T19:10:40.025Z,34.81
2022-07-28T19:13:09.097Z,34.50
2022-07-28T19:15:39.701Z,34.65
2022-07-28T19:18:10.293Z,34.55
2022-07-28T19:20:39.533Z,34.77
2022-07-28T19:23:06.074Z,34.38
2022-07-28T19:25:35.522Z,34.67
2022-07-28T19:28:02.033Z,34.22
2022-07-28T19:30:30.298Z,34.61
2022-07-28T19:32:56.750Z,34.33
2022-07-28T19:35:23.303Z,34.36
2022-07-28T19:37:50.774Z,34.24
2022-07-28T19:40:17.262Z,34.09
2022-07-28T19:42:43.750Z,33.81
2022-07-28T19:45:10.423Z,33.70
2022-07-28T19:47:37.205Z,34.04
2022-07-28T19:50:05.214Z,33.40
2022-07-28T19:52:31.794Z,33.18
2022-07-28T19:54:58.302Z,33.64
2022-07-28T19:57:25.273Z,34.02
2022-07-28T19:59:51.748Z,34.05
2022-07-28T20:02:18.280Z,33.99
2022-07-28T20:04:44.837Z,33.92
2022-07-28T20:07:11.347Z,34.04
2022-07-28T20:09:37.799Z,34.42
2022-07-28T20:12:04.611Z,33.79
2022-07-28T20:14:34.361Z,34.07
2022-07-28T20:17:00.924Z,34.29
2022-07-28T20:19:27.374Z,33.91
2022-07-28T20:21:53.836Z,34.40
2022-07-28T20:24:21.007Z,33.88
2022-07-28T20:26:47.437Z,34.18
2022-07-28T20:29:13.919Z,33.96
2022-07-28T20:31:40.456Z,34.33
2022-07-28T20:34:07.221Z,34.29
2022-07-28T20:36:34.656Z,34.19
2022-07-28T20:39:01.346Z,34.78
2022-07-28T20:41:27.798Z,34.86
2022-07-28T20:46:41.180Z,34.45
2022-07-28T20:49:08.164Z,34.61
2022-07-28T20:51:34.681Z,34.65
2022-07-28T20:54:01.134Z,34.83
2022-07-28T20:56:27.570Z,34.77
2022-07-28T20:58:54.163Z,35.33
2022-07-28T21:01:23.459Z,34.95
2022-07-28T21:03:50.160Z,35.21
2022-07-28T21:06:16.580Z,34.93
2022-07-28T21:08:44.880Z,34.94
2022-07-28T21:11:12.082Z,35.05
2022-07-28T21:13:38.582Z,34.92
2022-07-28T21:16:05.102Z,35.16
2022-07-28T21:18:31.532Z,34.86
2022-07-28T21:20:59.559Z,35.14
2022-07-28T21:23:26.015Z,35.32
2022-07-28T21:25:53.555Z,35.24
2022-07-28T21:28:38.540Z,35.16
2022-07-28T21:31:05.039Z,35.37
2022-07-28T21:33:31.610Z,35.56
2022-07-28T21:35:58.234Z,35.09
2022-07-28T21:38:24.696Z,35.50
2022-07-28T21:40:51.244Z,35.30
2022-07-28T21:43:17.767Z,35.65
2022-07-28T21:45:45.571Z,35.60
2022-07-28T21:48:12.625Z,35.55
2022-07-28T21:50:39.139Z,35.51
2022-07-28T21:53:05.593Z,35.36
2022-07-28T21:55:32.268Z,35.71
2022-07-28T21:57:58.733Z,35.11
2022-07-28T22:00:25.349Z,35.06
2022-07-28T22:02:51.877Z,35.26
2022-07-28T22:05:18.689Z,35.12
2022-07-28T22:07:45.193Z,35.17
2022-07-28T22:10:11.784Z,35.18
2022-07-28T22:12:39.521Z,34.88
2022-07-28T22:15:06.655Z,34.67
2022-07-28T22:17:33.168Z,34.45
2022-07-28T22:19:59.620Z,34.69
2022-07-28T22:22:26.074Z,34.77
2022-07-28T22:24:52.578Z,34.81
2022-07-28T22:27:19.083Z,34.47
2022-07-28T22:29:50.048Z,34.58
2022-07-28T22:32:19.000Z,34.09
2022-07-28T22:34:55.888Z,34.15
2022-07-28T22:37:22.353Z,34.26
2022-07-28T22:39:48.852Z,34.25
2022-07-28T22:42:15.374Z,34.48
2022-07-28T22:44:41.892Z,34.13
2022-07-28T22:47:08.475Z,34.55
2022-07-28T22:49:35.055Z,34.15
2022-07-28T22:52:01.636Z,34.12
2022-07-28T22:54:28.085Z,34.27
2022-07-28T22:56:54.585Z,34.04
2022-07-28T22:59:21.077Z,34.30
2022-07-28T23:01:48.110Z,34.09
2022-07-28T23:04:15.477Z,34.16
2022-07-28T23:06:42.367Z,34.34
2022-07-28T23:09:08.959Z,34.53
2022-07-28T23:11:35.428Z,34.30
2022-07-28T23:14:02.170Z,34.25
2022-07-28T23:16:28.802Z,34.27
2022-07-28T23:18:55.375Z,34.24
2022-07-28T23:21:22.226Z,34.02
2022-07-28T23:23:48.779Z,34.21
2022-07-28T23:26:15.281Z,34.11
2022-07-28T23:28:41.756Z,33.89
2022-07-28T23:31:08.351Z,33.94
2022-07-28T23:33:56.814Z,34.22
2022-07-28T23:36:26.711Z,34.05
2022-07-28T23:38:58.226Z,33.92
2022-07-28T23:41:25.693Z,33.98
2022-07-28T23:43:52.405Z,33.84
2022-07-28T23:46:18.957Z,34.02
2022-07-28T23:48:45.534Z,33.87
2022-07-28T23:51:13.942Z,34.30
2022-07-28T23:53:41.284Z,34.15
2022-07-28T23:56:08.400Z,34.20
2022-07-28T23:58:35.244Z,34.18
